Latest Weather Observations for Bairnsdale

IDV60801

Issued at 4:05 pm EST Thursday 2 October 2014 (issued every 30 minutes, with the page automatically refreshed every 10 minutes)

About weather observations | Map of weather stations | Latest weather observations for VIC | Other Formats
Station Details ID: 085279 Name: BAIRNSDALE AIRPORT Lat: -37.88 Lon: 147.57 Height: 49.4 m
Data from the previous 72 hours. | See also: Recent months at Bairnsdale
Date/Time
EST
Temp
°C
App
Temp
°C
Dew
Point
Rel
Hum
%
Delta-T
°C
Wind Press
QNH
hPa
Press
MSL
hPa
Rain
since 9 am
mm
Dir
 
Spd
km/h
Gust
km/h
Spd
kts
Gust
kts
02/04:00pm 16.4 8.4 7.3 55 4.5 WSW 39 57 21 31 1020.5 1020.5 0.0
02/03:30pm 16.9 9.4 7.8 55 4.6 WSW 37 63 20 34 1020.1 1020.1 0.0
02/03:00pm 17.3 9.0 7.6 53 4.9 WSW 41 61 22 33 1020.0 1020.0 0.0
02/02:30pm 17.3 8.3 7.1 51 5.1 WSW 44 63 24 34 1020.0 1020.0 0.0
02/02:00pm 17.7 9.8 7.7 52 5.1 WSW 39 61 21 33 1020.0 1020.0 0.0
02/01:40pm 17.6 8.8 7.4 51 5.1 WSW 43 61 23 33 1019.9 1019.9 0.0
02/01:30pm 17.7 9.1 8.0 53 4.9 WSW 43 56 23 30 1020.1 1020.1 0.0
02/01:06pm 18.0 10.8 9.1 56 4.6 WSW 37 56 20 30 1020.1 1020.1 0.0
02/01:00pm 17.5 9.6 7.8 53 4.9 WSW 39 56 21 30 1020.2 1020.2 0.0
02/12:30pm 17.6 10.3 8.7 56 4.6 WSW 37 50 20 27 1020.4 1020.4 0.0
02/12:10pm 17.3 9.5 8.2 55 4.6 WSW 39 57 21 31 1020.7 1020.7 0.0
02/12:00pm 16.9 8.9 7.3 53 4.8 WSW 39 56 21 30 1020.7 1020.7 0.0
02/11:41am 17.0 10.2 7.6 54 4.7 W 33 54 18 29 1020.9 1020.9 0.0
02/11:30am 17.2 9.9 8.6 57 4.4 WSW 37 50 20 27 1020.9 1020.9 0.0
02/11:04am 16.0 8.7 7.2 56 4.4 W 35 54 19 29 1021.0 1021.0 0.0
02/11:00am 16.2 8.5 7.2 55 4.5 W 37 54 20 29 1021.0 1021.0 0.0
02/10:36am 15.2 7.9 7.0 58 4.0 W 35 56 19 30 1021.3 1021.3 0.0
02/10:30am 15.1 8.4 7.2 59 3.9 W 32 46 17 25 1021.4 1021.4 0.0
02/10:00am 15.1 8.5 7.6 61 3.7 W 32 50 17 27 1021.7 1021.7 0.0
02/09:48am 14.2 8.1 6.6 60 3.7 W 28 48 15 26 1021.6 1021.6 0.0
02/09:30am 14.0 8.5 6.1 59 3.8 W 24 33 13 18 1021.7 1021.7 0.0
02/09:00am 12.9 8.8 6.0 63 3.3 WNW 17 24 9 13 1021.9 1021.9 0.8
02/08:30am 12.1 8.0 6.2 67 2.8 NW 17 22 9 12 1021.7 1021.7 0.8
02/08:00am 11.1 7.0 6.3 72 2.2 WNW 17 22 9 12 1021.7 1021.7 0.8
02/07:30am 9.2 5.3 5.2 76 1.8 NW 15 19 8 10 1021.6 1021.6 0.8
02/07:00am 7.7 3.7 4.7 81 1.3 WNW 15 19 8 10 1021.8 1021.8 0.8
02/06:30am 7.0 3.2 4.1 82 1.2 WNW 13 19 7 10 1021.8 1021.8 0.8
02/06:00am 6.6 2.8 3.8 82 1.2 NW 13 19 7 10 1021.6 1021.6 0.8
02/05:30am 5.8 1.9 3.3 84 1.0 NW 13 19 7 10 1021.5 1021.5 0.8
02/05:00am 5.9 1.7 3.6 85 1.0 NW 15 19 8 10 1021.6 1021.6 0.8
02/04:30am 5.3 1.3 3.0 85 0.9 NW 13 15 7 8 1021.6 1021.6 0.8
02/04:00am 5.9 1.7 3.6 85 1.0 NW 15 20 8 11 1021.6 1021.6 0.8
02/03:30am 6.2 2.4 3.7 84 1.1 NW 13 17 7 9 1021.8 1021.8 0.8
02/03:00am 7.0 2.9 4.3 83 1.2 WNW 15 20 8 11 1022.1 1022.1 0.8
02/02:30am 7.4 3.7 4.4 81 1.3 WNW 13 15 7 8 1022.3 1022.3 0.8
02/02:00am 7.7 4.4 4.3 79 1.5 WNW 11 15 6 8 1022.5 1022.5 0.8
02/01:30am 8.5 5.3 4.9 78 1.6 WNW 11 15 6 8 1022.9 1022.9 0.8
02/01:00am 9.3 5.3 4.7 73 2.0 W 15 20 8 11 1023.0 1023.0 0.8
02/12:30am 8.9 4.1 4.5 74 1.9 W 19 26 10 14 1023.0 1023.0 0.8
02/12:00am 8.8 4.4 4.6 75 1.9 WNW 17 22 9 12 1023.2 1023.2 0.8
 
Date/Time
EST
Temp
°C
App
Temp
°C
Dew
Point
Rel
Hum
%
Delta-T
°C
Wind Press
QNH
hPa
Press
MSL
hPa
Rain
since 9 am
mm
Dir
 
Spd
km/h
Gust
km/h
Spd
kts
Gust
kts
01/11:30pm 8.5 4.9 4.9 78 1.6 WNW 13 17 7 9 1023.5 1023.5 0.8
01/11:00pm 9.1 5.4 4.7 74 1.9 WNW 13 19 7 10 1023.7 1023.7 0.8
01/10:30pm 9.2 4.8 4.8 74 2.0 WNW 17 20 9 11 1023.6 1023.6 0.8
01/10:00pm 9.3 5.3 4.9 74 2.0 WNW 15 20 8 11 1024.0 1024.0 0.8
01/09:30pm 8.9 4.5 4.7 75 1.9 W 17 20 9 11 1024.1 1024.1 0.8
01/09:00pm 9.5 4.6 4.9 73 2.1 W 20 26 11 14 1024.0 1024.0 0.8
01/08:30pm 9.7 4.3 4.7 71 2.2 W 22 30 12 16 1023.8 1023.8 0.8
01/08:00pm 10.0 4.7 4.8 70 2.3 W 22 28 12 15 1023.8 1023.8 0.8
01/07:30pm 10.1 4.8 4.9 70 2.3 W 22 30 12 16 1023.4 1023.4 0.8
01/07:00pm 10.1 5.4 5.1 71 2.3 WSW 19 24 10 13 1023.1 1023.1 0.8
01/06:30pm 10.7 6.0 5.0 68 2.6 W 19 28 10 15 1022.7 1022.7 0.8
01/06:00pm 11.3 6.4 5.2 66 2.8 W 20 33 11 18 1022.3 1022.3 0.8
01/05:30pm 12.3 6.8 5.7 64 3.1 W 24 35 13 19 1022.1 1022.1 0.8
01/05:03pm 12.8 6.4 5.0 59 3.6 W 28 46 15 25 1022.1 1022.1 0.8
01/05:00pm 12.9 6.9 5.3 60 3.5 W 26 44 14 24 1021.9 1021.9 0.8
01/04:30pm 13.2 7.1 4.6 56 4.0 WSW 26 37 14 20 1021.9 1021.9 0.8
01/04:00pm 14.5 8.8 4.8 52 4.5 W 24 33 13 18 1021.4 1021.4 0.8
01/03:30pm 14.8 8.5 3.9 48 5.0 W 26 37 14 20 1021.4 1021.4 0.8
01/03:00pm 15.6 9.0 4.3 47 5.2 WSW 28 37 15 20 1021.2 1021.2 0.8
01/02:30pm 15.0 8.5 4.7 50 4.8 WSW 28 37 15 20 1021.0 1021.0 0.8
01/02:00pm 16.0 9.9 4.7 47 5.3 WSW 26 39 14 21 1021.5 1021.5 0.8
01/01:30pm 15.4 9.0 5.3 51 4.8 WNW 28 35 15 19 1021.3 1021.3 0.8
01/01:00pm 15.5 10.1 6.2 54 4.5 W 24 39 13 21 1021.4 1021.4 0.8
01/12:30pm 14.6 9.2 6.4 58 4.0 W 24 39 13 21 1021.6 1021.6 0.8
01/12:00pm 12.0 6.1 5.6 65 3.0 W 26 39 14 21 1021.8 1021.8 0.8
01/11:43am 11.1 5.3 8.0 81 1.5 WSW 28 37 15 20 1021.8 1021.8 0.8
01/11:31am 9.1 1.8 7.1 87 0.9 SW 35 54 19 29 1022.1 1022.1 0.8
01/11:30am 9.0 1.3 7.0 87 0.9 SW 37 54 20 29 1022.2 1022.2 0.8
01/11:25am 9.0 1.1 6.4 84 1.2 SW 37 56 20 30 1022.3 1022.3 0.6
01/11:24am 9.1 0.8 6.2 82 1.3 SW 39 56 21 30 1022.2 1022.2 0.6
01/11:14am 12.8 5.5 4.5 57 3.8 WSW 32 50 17 27 1021.6 1021.6 0.0
01/11:00am 13.3 6.6 3.9 53 4.2 W 28 44 15 24 1021.4 1021.4 0.0
01/10:30am 13.6 6.7 4.5 54 4.2 W 30 41 16 22 1021.5 1021.5 0.0
01/10:00am 12.3 5.0 4.5 59 3.5 WSW 32 46 17 25 1021.5 1021.5 0.0
01/09:30am 12.2 4.7 4.7 60 3.4 W 33 50 18 27 1021.2 1021.2 0.0
01/09:21am 11.7 4.4 4.4 61 3.3 W 32 50 17 27 1021.0 1021.0 0.0
01/09:00am 11.9 4.7 5.1 63 3.1 WSW 32 46 17 25 1020.7 1020.7 4.0
01/08:30am 10.9 3.7 4.8 66 2.8 W 32 48 17 26 1020.1 1020.1 4.0
01/08:19am 10.5 4.0 4.6 67 2.7 W 28 46 15 25 1019.9 1019.9 4.0
01/08:00am 9.9 3.4 4.5 69 2.4 W 28 44 15 24 1019.8 1019.8 4.0
01/07:30am 8.4 2.5 3.8 73 2.0 W 24 37 13 20 1019.1 1019.1 4.0
01/07:00am 7.4 1.8 3.5 76 1.7 W 22 33 12 18 1018.8 1018.8 4.0
01/06:30am 6.4 0.8 3.7 83 1.1 W 22 35 12 19 1018.2 1018.2 4.0
01/06:00am 5.1 0.8 3.0 86 0.9 WNW 15 17 8 9 1017.8 1017.8 4.0
01/05:30am 5.8 0.6 3.5 85 1.0 WNW 20 26 11 14 1017.3 1017.3 4.0
01/05:00am 6.2 0.1 3.0 80 1.3 W 24 37 13 20 1016.7 1016.7 4.0
01/04:30am 6.7 -0.6 2.4 74 1.8 W 30 43 16 23 1015.9 1015.9 4.0
01/04:19am 6.9 -0.8 2.2 72 1.9 W 32 52 17 28 1015.6 1015.6 4.0
01/04:00am 6.6 0.0 2.3 74 1.8 WNW 26 35 14 19 1015.2 1015.2 4.0
01/03:30am 6.4 -0.9 2.3 75 1.7 W 30 43 16 23 1014.8 1014.8 4.0
01/03:00am 6.5 -1.2 2.4 75 1.7 W 32 44 17 24 1014.5 1014.5 4.0
01/02:30am 6.9 -1.3 2.8 75 1.7 W 35 56 19 30 1013.8 1013.8 4.0
01/02:02am 6.7 -1.4 3.0 77 1.5 W 35 54 19 29 1013.6 1013.6 4.0
01/02:00am 6.7 -1.8 3.0 77 1.5 W 37 54 20 29 1013.6 1013.6 4.0
01/01:30am 7.0 -2.7 3.1 76 1.6 W 43 61 23 33 1012.9 1012.9 4.0
01/01:09am 6.5 -1.0 3.5 81 1.3 W 32 57 17 31 1013.3 1013.3 4.0
01/01:00am 6.0 -1.5 3.7 85 1.0 W 32 48 17 26 1013.4 1013.4 4.0
01/12:31am 8.6 -0.4 2.6 66 2.5 W 39 57 21 31 1013.1 1013.1 3.8
01/12:30am 8.6 -0.7 2.8 67 2.5 W 41 57 22 31 1013.1 1013.1 3.8
01/12:00am 8.0 2.5 2.0 66 2.5 W 20 28 11 15 1012.3 1012.3 3.8
 
Date/Time
EST
Temp
°C
App
Temp
°C
Dew
Point
Rel
Hum
%
Delta-T
°C
Wind Press
QNH
hPa
Press
MSL
hPa
Rain
since 9 am
mm
Dir
 
Spd
km/h
Gust
km/h
Spd
kts
Gust
kts
30/11:30pm 7.9 2.5 2.2 67 2.4 W 20 28 11 15 1011.9 1011.9 3.8
30/11:00pm 8.5 2.3 2.3 65 2.6 W 24 30 13 16 1011.7 1011.7 3.8
30/10:30pm 8.8 2.4 3.0 67 2.5 W 26 33 14 18 1011.5 1011.5 3.6
30/10:00pm 9.0 2.3 3.6 69 2.3 W 28 35 15 19 1011.3 1011.3 3.6
30/09:30pm 8.6 3.7 4.2 74 1.9 WNW 19 28 10 15 1011.1 1011.1 3.6
30/09:00pm 9.3 4.3 4.5 72 2.1 WNW 20 32 11 17 1011.3 1011.3 3.6
30/08:37pm 9.1 2.6 4.5 73 2.0 W 28 46 15 25 1010.7 1010.7 3.6
30/08:30pm 9.2 1.9 4.4 72 2.1 W 32 46 17 25 1010.9 1010.9 3.6
30/08:00pm 8.9 1.7 5.1 77 1.7 W 32 46 17 25 1010.0 1010.0 3.6
30/07:30pm 7.8 -0.6 5.8 87 0.9 W 39 59 21 32 1008.6 1008.6 3.6
30/07:00pm 8.6 -2.0 5.2 79 1.5 WSW 50 74 27 40 1008.2 1008.3 2.8
30/06:30pm 8.7 -3.7 6.5 86 1.0 WSW 61 91 33 49 1007.2 1007.3 2.8
30/06:00pm 9.6 -1.7 7.9 89 0.8 WSW 57 83 31 45 1006.5 1006.6 1.2
30/05:51pm 10.2 -0.9 8.8 91 0.7 WSW 57 76 31 41 1005.4 1005.5 0.8
30/05:50pm 10.2 -0.3 8.8 91 0.7 WSW 54 69 29 37 1005.2 1005.3 0.8
30/05:46pm 10.3 -4.0 8.7 90 0.8 WSW 74 95 40 51 1005.2 1005.3 0.6
30/05:44pm 10.5 -5.0 8.6 88 0.9 WSW 80 91 43 49 1005.1 1005.2 0.4
30/05:42pm 12.2 1.7 10.3 88 1.0 WSW 56 82 30 44 1005.0 1005.1 0.2
30/05:30pm 14.6 5.4 9.4 71 2.7 WSW 48 72 26 39 1004.3 1004.3 0.0
30/05:18pm 18.2 11.0 7.6 50 5.4 WSW 35 57 19 31 1002.8 1002.8 0.0
30/05:17pm 21.1 14.2 6.6 39 7.4 W 32 41 17 22 1003.4 1003.4 0.0
30/05:00pm 21.6 14.6 5.9 36 7.9 NNW 32 54 17 29 1000.9 1000.9 0.0
30/04:30pm 22.5 15.4 6.3 35 8.3 NNW 33 52 18 28 1000.8 1000.8 0.0
30/04:24pm 22.8 16.2 6.1 34 8.5 NNW 30 48 16 26 1000.4 1000.4 0.0
30/04:00pm 22.2 14.5 5.2 33 8.5 NNW 35 50 19 27 1001.5 1001.5 0.0
30/03:30pm 23.2 15.6 6.0 33 8.8 NNW 35 54 19 29 1001.1 1001.1 0.0
30/03:22pm 23.2 15.8 6.9 35 8.4 NNW 35 54 19 29 1001.1 1001.1 0.0
30/03:00pm 23.7 16.5 6.0 32 9.1 NNW 33 50 18 27 1001.3 1001.3 0.0
30/02:30pm 24.3 19.0 7.0 33 9.0 WNW 24 37 13 20 1001.7 1001.7 0.0
30/02:00pm 22.9 18.5 7.4 37 8.1 W 20 32 11 17 1002.7 1002.7 0.0
30/01:32pm 23.8 17.7 6.6 33 8.9 NW 28 46 15 25 1002.9 1002.9 0.0
30/01:30pm 23.9 17.5 7.1 34 8.8 NW 30 46 16 25 1002.9 1002.9 0.0
30/01:00pm 24.8 19.4 7.9 34 9.0 NNW 26 39 14 21 1002.4 1002.4 0.0
30/12:30pm 23.9 21.6 9.1 39 8.0 W 11 20 6 11 1003.7 1003.7 0.0
30/12:00pm 23.4 21.5 9.0 40 7.8 NW 9 19 5 10 1004.5 1004.5 0.0
30/11:30am 22.1 20.0 9.6 45 6.8 S 11 19 6 10 1005.3 1005.4 0.0
30/11:00am 22.0 19.9 11.1 50 6.1 SW 13 17 7 9 1006.1 1006.2 0.0
30/10:30am 21.5 18.5 9.1 45 6.6 SW 15 20 8 11 1006.7 1006.8 0.0
30/10:00am 20.5 17.0 10.3 52 5.5 SW 19 26 10 14 1007.3 1007.4 0.0
30/09:30am 22.1 17.7 8.9 43 7.0 NW 22 33 12 18 1007.8 1007.9 0.0
30/09:00am 21.0 15.7 8.3 44 6.7 NNW 26 35 14 19 1007.8 1007.9 0.0
30/08:30am 19.0 17.3 11.3 61 4.2 N 11 20 6 11 1008.0 1008.1 0.0
30/08:00am 15.1 13.9 9.5 69 2.9 NE 6 9 3 5 1008.3 1008.4 0.0
30/07:30am 12.0 10.4 8.1 77 1.9 NE 6 11 3 6 1008.5 1008.5 0.0
30/07:00am 10.1 7.3 6.8 80 1.6 NNE 11 17 6 9 1008.6 1008.6 0.0
30/06:30am 9.3 6.8 8.2 93 0.5 NE 11 13 6 7 1009.0 1009.0 0.0
30/06:00am 5.8 3.4 5.2 96 0.3 NE 7 9 4 5 1009.1 1009.1 0.0
30/05:30am 6.5 5.6 5.9 96 0.3 CALM 0 0 0 0 1009.1 1009.1 0.0
30/05:00am 7.2 4.8 6.9 98 0.1 NNE 9 11 5 6 1009.1 1009.1 0.0
30/04:30am 6.8 4.7 6.7 99 0.0 N 7 9 4 5 1009.1 1009.1 0.0
30/04:00am 5.7 2.9 5.3 97 0.2 N 9 11 5 6 1009.4 1009.4 0.0
30/03:30am 6.5 3.9 6.2 98 0.1 N 9 13 5 7 1009.8 1009.8 0.0
30/03:00am 7.1 4.3 6.8 98 0.1 NNW 11 15 6 8 1010.3 1010.3 0.0
30/02:30am 7.2 5.2 6.9 98 0.1 NNW 7 11 4 6 1010.6 1010.6 0.0
30/02:00am 6.8 4.6 6.4 97 0.2 NNW 7 11 4 6 1010.9 1010.9 0.0
30/01:30am 7.0 4.8 6.4 96 0.3 NNW 7 15 4 8 1011.2 1011.2 0.0
30/01:00am 7.5 4.3 6.9 96 0.3 NW 13 15 7 8 1011.4 1011.4 0.0
30/12:30am 7.2 4.2 6.1 93 0.5 NW 11 13 6 7 1011.5 1011.5 0.0
30/12:00am 7.3 4.6 5.8 90 0.7 NW 9 13 5 7 1011.7 1011.7 0.0
 
Date/Time
EST
Temp
°C
App
Temp
°C
Dew
Point
Rel
Hum
%
Delta-T
°C
Wind Press
QNH
hPa
Press
MSL
hPa
Rain
since 9 am
mm
Dir
 
Spd
km/h
Gust
km/h
Spd
kts
Gust
kts
29/11:30pm 9.2 7.4 7.3 88 0.9 N 6 7 3 4 1011.7 1011.7 0.0
29/11:00pm 9.5 7.6 6.6 82 1.4 ESE 6 9 3 5 1012.0 1012.0 0.0
29/10:30pm 11.0 8.5 8.0 82 1.5 E 11 13 6 7 1012.0 1012.0 0.0
29/10:00pm 11.2 9.1 8.1 81 1.5 ESE 9 13 5 7 1012.4 1012.4 0.0
29/09:30pm 11.7 8.5 8.4 80 1.6 E 15 17 8 9 1012.8 1012.8 0.0
29/09:00pm 11.8 9.1 8.8 82 1.5 E 13 17 7 9 1013.0 1013.0 0.0
29/08:30pm 11.9 9.7 9.5 85 1.2 E 11 13 6 7 1013.2 1013.2 0.0
29/08:00pm 12.5 9.7 10.0 85 1.3 E 15 17 8 9 1013.2 1013.2 0.0
29/07:30pm 12.7 10.3 9.9 83 1.4 ENE 13 17 7 9 1013.1 1013.1 0.0
29/07:00pm 13.1 10.1 9.4 78 1.9 ENE 15 20 8 11 1012.7 1012.7 0.0
29/06:30pm 13.2 10.2 9.1 76 2.1 E 15 19 8 10 1012.4 1012.4 0.0
29/06:00pm 14.1 11.1 9.1 72 2.5 E 15 19 8 10 1012.2 1012.2 0.0
29/05:30pm 15.2 11.3 9.3 68 3.0 E 20 26 11 14 1011.8 1011.8 0.0
29/05:00pm 16.2 12.5 9.4 64 3.5 E 19 24 10 13 1011.5 1011.5 0.0
29/04:30pm 17.0 12.7 9.2 60 4.1 ESE 22 26 12 14 1011.0 1011.0 0.0

Other Formats:

Comma delimited format used in spreadsheet applications
http://www.bom.gov.au/fwo/IDV60801/IDV60801.94912.axf

JavaScript Object Notation format (JSON) in row-major order
http://www.bom.gov.au/fwo/IDV60801/IDV60801.94912.json